createdAt,value
2019-04-19T00:02:19.903Z,0.0
2019-04-19T00:13:06.500Z,0.0
2019-04-19T00:23:27.968Z,0.0
2019-04-19T00:33:39.000Z,0.0
2019-04-19T00:45:05.263Z,0.0
2019-04-19T00:55:50.800Z,0.0
2019-04-19T01:06:47.152Z,0.0
2019-04-19T01:17:11.231Z,0.0
2019-04-19T01:27:30.845Z,0.0
2019-04-19T01:38:33.590Z,0.0
2019-04-19T01:52:55.495Z,0.0
2019-04-19T02:02:50.177Z,0.0
2019-04-19T02:13:04.076Z,0.0
2019-04-19T02:23:11.460Z,0.0
2019-04-19T03:05:29.400Z,0.0
2019-04-19T03:15:41.009Z,0.0
2019-04-19T03:26:50.520Z,0.0
2019-04-19T03:36:54.906Z,0.0
2019-04-19T03:47:17.818Z,0.0
2019-04-19T03:57:23.129Z,4.0
2019-04-19T04:07:29.087Z,16.0
2019-04-19T04:18:47.654Z,76.0
2019-04-19T04:29:29.379Z,232.0
2019-04-19T04:41:21.278Z,520.0
2019-04-19T04:51:39.321Z,896.0
2019-04-19T05:02:27.467Z,1300.0
2019-04-19T05:13:00.657Z,1692.0
2019-04-19T05:36:04.319Z,2568.0
2019-04-19T05:48:44.847Z,3020.0
2019-04-19T05:59:44.527Z,3368.0
2019-04-19T06:09:47.587Z,3704.0
2019-04-19T06:21:07.739Z,4076.0
2019-04-19T06:33:32.400Z,4496.0
2019-04-19T06:43:46.419Z,4952.0
2019-04-19T06:54:09.475Z,5472.0
2019-04-19T07:04:44.048Z,9688.0
2019-04-19T07:16:04.267Z,14752.0
2019-04-19T07:26:58.108Z,18176.0
2019-04-19T07:37:34.857Z,18688.0
2019-04-19T07:47:45.548Z,24224.0
2019-04-19T08:10:21.426Z,29792.0
2019-04-19T08:34:01.821Z,36512.0
2019-04-19T08:44:58.106Z,43936.0
2019-04-19T08:55:40.625Z,47456.0
2019-04-19T09:18:32.411Z,51520.0
2019-04-19T09:29:19.537Z,52672.0
2019-04-19T09:39:48.694Z,55776.0
2019-04-19T09:52:30.439Z,58528.0
2019-04-19T10:05:34.894Z,62144.0
2019-04-19T10:17:13.840Z,60000.0
2019-04-19T10:28:22.338Z,61536.0
2019-04-19T10:39:19.154Z,62688.0
2019-04-19T10:51:13.328Z,67808.0
2019-04-19T11:14:34.433Z,63488.0
2019-04-19T11:25:20.197Z,68448.0
2019-04-19T11:36:53.720Z,69920.0
2019-04-19T12:02:56.054Z,69504.0
2019-04-19T12:13:11.096Z,68448.0
2019-04-19T12:36:43.382Z,63264.0
2019-04-19T12:47:45.051Z,65504.0
2019-04-19T13:12:48.266Z,62848.0
2019-04-19T13:23:24.275Z,56128.0
2019-04-19T13:34:41.261Z,56576.0
2019-04-19T13:47:14.519Z,44160.0
2019-04-19T13:58:07.632Z,20672.0
2019-04-19T14:09:00.731Z,20224.0
2019-04-19T14:20:03.115Z,19616.0
2019-04-19T14:43:38.514Z,35008.0
2019-04-19T15:07:58.827Z,20768.0
2019-04-19T15:18:57.979Z,17088.0
2019-04-19T15:29:47.498Z,10640.0
2019-04-19T15:39:58.076Z,10740.0
2019-04-19T15:51:10.328Z,8084.0
2019-04-19T16:14:07.972Z,5760.0
2019-04-19T16:24:51.590Z,5404.0
2019-04-19T16:35:05.567Z,5236.0
2019-04-19T16:45:15.724Z,4632.0
2019-04-19T16:55:29.732Z,4168.0
2019-04-19T17:20:27.974Z,3104.0
2019-04-19T19:20:29.339Z,0.0
2019-04-19T19:30:40.978Z,0.0
2019-04-19T19:42:32.822Z,0.0
2019-04-19T19:53:25.759Z,0.0
2019-04-19T20:05:03.264Z,0.0
2019-04-19T20:31:40.524Z,0.0
2019-04-19T20:41:50.653Z,0.0
2019-04-19T20:57:54.466Z,0.0
2019-04-19T21:11:46.441Z,0.0
2019-04-19T21:38:28.478Z,0.0
2019-04-19T21:48:49.010Z,0.0
2019-04-19T22:11:40.494Z,0.0
2019-04-19T22:21:54.956Z,0.0
2019-04-19T22:32:46.506Z,0.0
2019-04-19T22:43:29.309Z,0.0
2019-04-19T22:54:30.821Z,0.0
2019-04-19T23:04:48.336Z,0.0
2019-04-19T23:14:57.270Z,0.0
2019-04-19T23:25:36.685Z,0.0
2019-04-19T23:37:11.833Z,0.0
2019-04-19T23:47:22.397Z,0.0
2019-04-19T23:57:36.036Z,0.0
